createdAt,value
2017-07-05T00:01:08.377Z,20.02
2017-07-05T00:02:17.996Z,20.11
2017-07-05T00:03:26.965Z,20.1
2017-07-05T00:04:37.234Z,20.13
2017-07-05T00:05:47.491Z,20.14
2017-07-05T00:06:57.422Z,20.14
2017-07-05T00:08:07.356Z,20.2
2017-07-05T00:09:17.288Z,20.17
2017-07-05T00:10:27.545Z,20.13
2017-07-05T00:11:37.166Z,20.16
2017-07-05T00:12:47.421Z,20.17
2017-07-05T00:13:56.714Z,20.08
2017-07-05T00:15:06.324Z,20.13
2017-07-05T00:16:16.583Z,20.06
2017-07-05T00:17:26.517Z,20.14
2017-07-05T00:18:36.452Z,20.14
2017-07-05T00:19:46.058Z,20.31
2017-07-05T00:20:55.987Z,20.36
2017-07-05T00:22:05.266Z,20.38
2017-07-05T00:23:14.866Z,20.47
2017-07-05T00:24:24.518Z,20.51
2017-07-05T00:25:33.804Z,20.55
2017-07-05T00:26:43.404Z,20.42
2017-07-05T00:27:53.656Z,20.39
2017-07-05T00:29:03.598Z,20.47
2017-07-05T00:30:13.529Z,20.38
2017-07-05T00:31:22.821Z,20.36
2017-07-05T00:32:33.071Z,20.41
2017-07-05T00:33:43.339Z,20.39
2017-07-05T00:34:52.956Z,20.47
2017-07-05T00:36:02.884Z,20.42
2017-07-05T00:37:13.146Z,20.43
2017-07-05T00:38:23.398Z,20.29
2017-07-05T00:39:33.325Z,20.31
2017-07-05T00:40:42.932Z,20.31
2017-07-05T00:41:52.541Z,20.29
2017-07-05T00:43:02.480Z,20.36
2017-07-05T00:44:12.740Z,20.48
2017-07-05T00:45:22.667Z,20.64
2017-07-05T00:46:32.594Z,20.72
2017-07-05T00:47:42.214Z,20.55
2017-07-05T00:48:52.143Z,20.48
2017-07-05T00:50:01.753Z,20.38
2017-07-05T00:51:11.688Z,20.33
2017-07-05T00:52:20.983Z,20.29
2017-07-05T00:53:30.595Z,20.31
2017-07-05T00:54:40.542Z,20.29
2017-07-05T00:55:50.146Z,20.33
2017-07-05T00:56:59.769Z,20.35
2017-07-05T00:58:09.380Z,20.32
2017-07-05T00:59:18.353Z,20.21
2017-07-05T01:00:28.288Z,20.29
2017-07-05T01:01:38.530Z,20.35
2017-07-05T01:02:48.795Z,20.31
2017-07-05T01:03:58.723Z,20.24
2017-07-05T01:05:09.050Z,20.26
2017-07-05T01:06:18.658Z,20.21
2017-07-05T01:07:27.622Z,20.14
2017-07-05T01:08:37.236Z,20.14
2017-07-05T01:09:46.856Z,20.21
2017-07-05T01:10:56.462Z,20.05
2017-07-05T01:12:06.392Z,20.14
2017-07-05T01:13:16.326Z,20.16
2017-07-05T01:14:26.578Z,20.16
2017-07-05T01:15:36.827Z,20.1
2017-07-05T01:16:47.134Z,19.96
2017-07-05T01:17:56.742Z,20.05
2017-07-05T01:19:06.995Z,20.14
2017-07-05T01:20:16.939Z,20.23
2017-07-05T01:21:27.203Z,20.16
2017-07-05T01:22:37.484Z,20.2
2017-07-05T01:23:47.091Z,20.16
2017-07-05T01:24:56.701Z,20.02
2017-07-05T01:26:06.306Z,19.94
2017-07-05T01:27:15.923Z,19.95
2017-07-05T01:28:26.186Z,20.05
2017-07-05T01:29:35.797Z,19.99
2017-07-05T01:30:45.730Z,19.99
2017-07-05T01:31:55.020Z,19.95
2017-07-05T01:33:04.955Z,20.01
2017-07-05T01:34:14.889Z,19.84
2017-07-05T01:35:25.143Z,19.76
2017-07-05T01:36:34.752Z,19.74
2017-07-05T01:37:44.681Z,19.8
2017-07-05T01:38:54.931Z,19.69
2017-07-05T01:40:04.870Z,19.74
2017-07-05T01:41:15.127Z,19.73
2017-07-05T01:42:25.386Z,19.71
2017-07-05T01:43:34.992Z,19.74
2017-07-05T01:44:44.942Z,19.88
2017-07-05T01:45:54.550Z,19.88
2017-07-05T01:47:04.487Z,19.8
2017-07-05T01:48:14.413Z,19.8
2017-07-05T01:49:24.681Z,19.87
2017-07-05T01:50:34.608Z,19.92
2017-07-05T01:51:44.883Z,19.95
2017-07-05T01:52:54.826Z,19.86
2017-07-05T01:54:05.084Z,19.81
2017-07-05T01:55:15.015Z,19.91
2017-07-05T01:56:24.948Z,19.94
2017-07-05T01:57:33.913Z,19.84
2017-07-05T01:58:44.176Z,19.76
2017-07-05T01:59:54.431Z,19.78
2017-07-05T02:01:04.057Z,19.71
2017-07-05T02:02:13.670Z,19.69
2017-07-05T02:03:23.591Z,19.71
2017-07-05T02:04:33.194Z,19.76
2017-07-05T02:05:43.200Z,19.81
2017-07-05T02:06:52.822Z,19.74
2017-07-05T02:08:03.076Z,19.81
2017-07-05T02:09:13.327Z,19.77
2017-07-05T02:10:22.931Z,19.83
2017-07-05T02:11:32.868Z,19.73
2017-07-05T02:12:42.476Z,19.71
2017-07-05T02:13:52.095Z,19.65
2017-07-05T02:15:02.035Z,19.62
2017-07-05T02:16:11.638Z,19.61
2017-07-05T02:17:21.251Z,19.61
2017-07-05T02:18:30.873Z,19.73
2017-07-05T02:19:40.807Z,19.68
2017-07-05T02:20:51.064Z,19.65
2017-07-05T02:22:00.676Z,19.8
2017-07-05T02:23:10.917Z,19.96
2017-07-05T02:24:20.842Z,19.96
2017-07-05T02:25:30.772Z,19.91
2017-07-05T02:26:41.026Z,19.83
2017-07-05T02:27:50.958Z,19.78
2017-07-05T02:29:01.219Z,19.92
2017-07-05T02:30:11.476Z,19.94
2017-07-05T02:31:21.089Z,19.81
2017-07-05T02:32:30.384Z,19.84
2017-07-05T02:33:40.320Z,19.8
2017-07-05T02:34:50.611Z,19.84
2017-07-05T02:36:00.224Z,19.78
2017-07-05T02:37:10.148Z,19.71
2017-07-05T02:38:20.085Z,19.68
2017-07-05T02:39:29.379Z,19.63
2017-07-05T02:40:39.681Z,19.59
2017-07-05T02:41:49.240Z,19.55
2017-07-05T02:42:59.165Z,19.59
2017-07-05T02:44:08.451Z,19.59
2017-07-05T02:45:18.059Z,19.61
2017-07-05T02:46:27.992Z,19.71
2017-07-05T02:47:37.284Z,19.59
2017-07-05T02:48:46.898Z,19.71
2017-07-05T02:49:56.512Z,19.59
2017-07-05T02:51:06.437Z,19.63
2017-07-05T02:52:16.053Z,19.59
2017-07-05T02:53:25.995Z,19.73
2017-07-05T02:54:35.285Z,19.78
2017-07-05T02:55:45.213Z,19.87
2017-07-05T02:56:55.472Z,19.95
2017-07-05T02:58:04.767Z,19.96
2017-07-05T02:59:14.690Z,19.98
2017-07-05T03:00:24.298Z,20.03
2017-07-05T03:01:34.548Z,20.06
2017-07-05T03:02:44.486Z,20.05
2017-07-05T03:03:54.735Z,19.84
2017-07-05T03:05:04.341Z,19.81
2017-07-05T03:06:14.596Z,19.69
2017-07-05T03:07:24.876Z,19.65
2017-07-05T03:08:34.165Z,19.69
2017-07-05T03:09:44.423Z,19.59
2017-07-05T03:10:54.675Z,19.68
2017-07-05T03:12:04.916Z,19.71
2017-07-05T03:13:14.851Z,19.61
2017-07-05T03:14:24.783Z,19.62
2017-07-05T03:15:35.043Z,19.59
2017-07-05T03:16:44.649Z,19.65
2017-07-05T03:17:54.589Z,19.62
2017-07-05T03:19:04.518Z,19.56
2017-07-05T03:20:14.453Z,19.68
2017-07-05T03:21:24.091Z,19.55
2017-07-05T03:22:34.024Z,19.61
2017-07-05T03:23:43.640Z,19.58
2017-07-05T03:24:53.885Z,19.5
2017-07-05T03:26:03.169Z,19.51
2017-07-05T03:27:12.771Z,19.58
2017-07-05T03:28:22.704Z,19.58
2017-07-05T03:29:32.324Z,19.61
2017-07-05T03:30:42.595Z,19.63
2017-07-05T03:31:52.531Z,19.68
2017-07-05T03:33:02.142Z,19.61
2017-07-05T03:34:11.759Z,19.54
2017-07-05T03:35:21.366Z,19.59
2017-07-05T03:36:31.302Z,19.56
2017-07-05T03:37:41.566Z,19.62
2017-07-05T03:38:51.815Z,19.66
2017-07-05T03:40:02.070Z,19.61
2017-07-05T03:41:12.006Z,19.62
2017-07-05T03:42:21.942Z,19.62
2017-07-05T03:43:32.202Z,19.62
2017-07-05T03:44:42.142Z,19.58
2017-07-05T03:45:52.396Z,19.54
2017-07-05T03:47:02.335Z,19.54
2017-07-05T03:48:11.940Z,19.56
2017-07-05T03:49:20.909Z,19.56
2017-07-05T03:50:31.157Z,19.68
2017-07-05T03:51:41.408Z,19.68
2017-07-05T03:52:51.674Z,19.8
2017-07-05T03:54:01.606Z,19.83
2017-07-05T03:55:11.543Z,19.81
2017-07-05T03:56:21.801Z,19.83
2017-07-05T03:57:31.086Z,19.77
2017-07-05T03:58:41.028Z,19.77
2017-07-05T03:59:50.977Z,19.62
2017-07-05T04:01:00.271Z,19.71
2017-07-05T04:02:09.890Z,19.68
2017-07-05T04:03:19.499Z,19.62
2017-07-05T04:04:29.430Z,19.62
2017-07-05T04:05:39.369Z,19.63
2017-07-05T04:06:49.318Z,19.71
2017-07-05T04:07:59.257Z,19.8
2017-07-05T04:09:09.186Z,19.73
2017-07-05T04:10:19.127Z,19.62
2017-07-05T04:11:29.046Z,19.54
2017-07-05T04:12:38.670Z,19.5
2017-07-05T04:13:48.933Z,19.55
2017-07-05T04:14:58.547Z,19.55
2017-07-05T04:16:08.473Z,19.63
2017-07-05T04:17:18.073Z,19.51
2017-07-05T04:18:27.692Z,19.63
2017-07-05T04:19:37.622Z,19.73
2017-07-05T04:20:47.553Z,19.71
2017-07-05T04:21:57.794Z,19.74
2017-07-05T04:23:07.410Z,19.73
2017-07-05T04:24:17.650Z,19.69
2017-07-05T04:25:27.592Z,19.78
2017-07-05T04:26:37.906Z,19.81
2017-07-05T04:27:47.135Z,19.86
2017-07-05T04:28:57.064Z,19.78
2017-07-05T04:30:06.679Z,19.74
2017-07-05T04:31:16.619Z,19.68
2017-07-05T04:32:25.264Z,19.74
2017-07-05T04:33:35.201Z,19.88
2017-07-05T04:34:45.132Z,19.84
2017-07-05T04:35:55.386Z,19.87
2017-07-05T04:37:05.321Z,19.83
2017-07-05T04:38:15.568Z,19.84
2017-07-05T04:39:25.486Z,19.78
2017-07-05T04:40:34.774Z,19.88
2017-07-05T04:41:44.708Z,19.81
2017-07-05T04:42:53.997Z,19.81
2017-07-05T04:44:03.284Z,19.71
2017-07-05T04:45:12.901Z,19.69
2017-07-05T04:46:23.146Z,19.78
2017-07-05T04:47:33.389Z,19.74
2017-07-05T04:48:42.356Z,19.66
2017-07-05T04:49:52.306Z,19.77
2017-07-05T04:51:01.273Z,19.87
2017-07-05T04:52:10.887Z,20.11
2017-07-05T04:53:20.833Z,20.32
2017-07-05T04:54:31.098Z,20.38
2017-07-05T04:55:40.706Z,20.5
2017-07-05T04:56:50.319Z,20.64
2017-07-05T04:58:00.253Z,20.57
2017-07-05T04:59:09.531Z,20.66
2017-07-05T05:00:19.467Z,20.77
2017-07-05T05:01:29.081Z,20.73
2017-07-05T05:02:39.378Z,20.82
2017-07-05T05:03:49.303Z,20.91
2017-07-05T05:04:59.233Z,20.91
2017-07-05T05:06:08.836Z,20.82
2017-07-05T05:07:18.767Z,20.98
2017-07-05T05:08:29.028Z,20.98
2017-07-05T05:09:38.637Z,20.94
2017-07-05T05:10:48.570Z,20.95
2017-07-05T05:11:58.829Z,20.99
2017-07-05T05:13:08.755Z,21.06
2017-07-05T05:14:18.368Z,21.07
2017-07-05T05:15:28.304Z,21.04
2017-07-05T05:16:37.928Z,21.06
2017-07-05T05:17:47.547Z,21.09
2017-07-05T05:18:57.159Z,21.03
2017-07-05T05:20:06.766Z,21.09
2017-07-05T05:21:16.384Z,21.07
2017-07-05T05:22:26.387Z,21.07
2017-07-05T05:23:35.990Z,21.12
2017-07-05T05:24:45.273Z,21.03
2017-07-05T05:25:54.886Z,21.1
2017-07-05T05:27:05.143Z,21.09
2017-07-05T05:28:15.411Z,21.14
2017-07-05T05:29:25.358Z,21.17
2017-07-05T05:30:35.300Z,21.13
2017-07-05T05:31:45.554Z,21.17
2017-07-05T05:32:54.518Z,21.21
2017-07-05T05:34:03.805Z,21.16
2017-07-05T05:35:13.743Z,21.22
2017-07-05T05:36:23.681Z,21.24
2017-07-05T05:37:33.291Z,21.24
2017-07-05T05:38:42.906Z,21.25
2017-07-05T05:39:53.157Z,21.21
2017-07-05T05:41:03.075Z,21.28
2017-07-05T05:42:13.022Z,21.27
2017-07-05T05:43:23.306Z,21.27
2017-07-05T05:44:33.245Z,21.25
2017-07-05T05:45:43.182Z,21.28
2017-07-05T05:46:53.117Z,21.21
2017-07-05T05:48:03.370Z,21.28
2017-07-05T05:49:13.309Z,21.22
2017-07-05T05:50:23.559Z,21.4
2017-07-05T05:51:33.161Z,21.25
2017-07-05T05:52:42.772Z,21.32
2017-07-05T05:53:53.022Z,21.28
2017-07-05T05:55:02.632Z,21.37
2017-07-05T05:56:11.929Z,21.38
2017-07-05T05:57:22.194Z,21.4
2017-07-05T05:58:32.140Z,21.37
2017-07-05T05:59:42.077Z,21.38
2017-07-05T06:00:51.689Z,21.4
2017-07-05T06:02:01.312Z,21.35
2017-07-05T06:03:10.601Z,21.35
2017-07-05T06:04:20.530Z,21.37
2017-07-05T06:05:30.137Z,21.31
2017-07-05T06:06:39.426Z,21.31
2017-07-05T06:07:49.366Z,21.37
2017-07-05T06:08:58.984Z,21.42
2017-07-05T06:10:08.259Z,21.42
2017-07-05T06:11:18.199Z,21.35
2017-07-05T06:12:28.126Z,21.4
2017-07-05T06:13:37.417Z,21.47
2017-07-05T06:14:47.351Z,21.44
2017-07-05T06:15:57.278Z,21.49
2017-07-05T06:17:07.207Z,21.49
2017-07-05T06:18:17.456Z,21.49
2017-07-05T06:19:27.383Z,21.54
2017-07-05T06:20:37.637Z,21.53
2017-07-05T06:21:46.606Z,21.44
2017-07-05T06:22:56.543Z,21.54
2017-07-05T06:24:05.835Z,21.59
2017-07-05T06:25:15.773Z,21.49
2017-07-05T06:26:25.435Z,21.59
2017-07-05T06:27:35.381Z,21.59
2017-07-05T06:28:45.640Z,21.47
2017-07-05T06:29:55.257Z,21.61
2017-07-05T06:31:05.181Z,21.61
2017-07-05T06:32:15.433Z,21.5
2017-07-05T06:33:25.683Z,21.52
2017-07-05T06:34:35.938Z,21.5
2017-07-05T06:35:46.197Z,21.61
2017-07-05T06:36:55.815Z,21.58
2017-07-05T06:38:05.748Z,21.58
2017-07-05T06:39:15.682Z,21.54
2017-07-05T06:40:24.969Z,21.5
2017-07-05T06:41:35.246Z,21.49
2017-07-05T06:42:44.863Z,21.52
2017-07-05T06:43:54.159Z,21.5
2017-07-05T06:45:03.775Z,21.58
2017-07-05T06:46:13.713Z,21.5
2017-07-05T06:47:23.653Z,21.56
2017-07-05T06:48:33.593Z,21.52
2017-07-05T06:49:43.513Z,21.58
2017-07-05T06:50:53.778Z,21.5
2017-07-05T06:52:03.390Z,21.53
2017-07-05T06:53:13.324Z,21.53
2017-07-05T06:54:22.938Z,21.59
2017-07-05T06:55:32.549Z,21.58
2017-07-05T06:56:42.802Z,21.56
2017-07-05T06:57:52.737Z,21.54
2017-07-05T06:59:02.676Z,21.53
2017-07-05T07:00:12.620Z,21.58
2017-07-05T07:01:22.551Z,21.54
2017-07-05T07:02:32.490Z,21.62
2017-07-05T07:03:42.434Z,21.62
2017-07-05T07:04:52.359Z,21.65
2017-07-05T07:06:02.619Z,21.59
2017-07-05T07:07:12.875Z,21.56
2017-07-05T07:08:23.135Z,21.61
2017-07-05T07:09:33.064Z,21.59
2017-07-05T07:10:42.997Z,21.56
2017-07-05T07:11:52.611Z,21.61
2017-07-05T07:13:01.909Z,21.64
2017-07-05T07:14:12.165Z,21.5
2017-07-05T07:15:22.107Z,21.65
2017-07-05T07:16:32.046Z,21.62
2017-07-05T07:17:41.981Z,21.59
2017-07-05T07:18:51.916Z,21.64
2017-07-05T07:20:02.181Z,21.59
2017-07-05T07:21:11.801Z,21.69
2017-07-05T07:22:21.101Z,21.62
2017-07-05T07:23:30.714Z,21.64
2017-07-05T07:24:39.995Z,21.64
2017-07-05T07:25:49.933Z,21.68
2017-07-05T07:26:59.554Z,21.58
2017-07-05T07:28:09.549Z,21.68
2017-07-05T07:29:19.184Z,21.72
2017-07-05T07:30:29.111Z,21.67
2017-07-05T07:31:39.035Z,21.68
2017-07-05T07:32:48.652Z,21.71
2017-07-05T07:33:58.266Z,21.69
2017-07-05T07:35:07.563Z,21.71
2017-07-05T07:36:17.817Z,21.68
2017-07-05T07:37:28.069Z,21.68
2017-07-05T07:38:38.004Z,21.67
2017-07-05T07:39:48.268Z,21.69
2017-07-05T07:40:57.879Z,21.67
2017-07-05T07:42:07.491Z,21.64
2017-07-05T07:43:17.433Z,21.67
2017-07-05T07:44:27.373Z,21.74
2017-07-05T07:45:37.304Z,21.68
2017-07-05T07:46:46.594Z,21.69
2017-07-05T07:47:56.258Z,21.69
2017-07-05T07:49:06.521Z,21.72
2017-07-05T07:50:16.456Z,21.69
2017-07-05T07:51:26.406Z,21.75
2017-07-05T07:52:36.672Z,21.74
2017-07-05T07:53:45.963Z,21.72
2017-07-05T07:54:56.232Z,21.71
2017-07-05T07:56:06.162Z,21.82
2017-07-05T07:57:15.460Z,21.72
2017-07-05T07:58:25.383Z,21.77
2017-07-05T07:59:35.320Z,21.71
2017-07-05T08:00:45.241Z,21.72
2017-07-05T08:01:54.530Z,21.77
2017-07-05T08:03:04.477Z,21.79
2017-07-05T08:04:14.737Z,21.82
2017-07-05T08:05:24.665Z,21.72
2017-07-05T08:06:34.283Z,21.82
2017-07-05T08:07:43.891Z,21.75
2017-07-05T08:08:53.502Z,21.74
2017-07-05T08:10:03.754Z,21.82
2017-07-05T08:11:14.007Z,21.74
2017-07-05T08:12:23.935Z,21.77
2017-07-05T08:13:33.542Z,21.83
2017-07-05T08:14:42.829Z,21.8
2017-07-05T08:15:53.091Z,21.8
2017-07-05T08:17:02.375Z,21.8
2017-07-05T08:18:11.663Z,21.82
2017-07-05T08:19:21.608Z,21.84
2017-07-05T08:20:31.538Z,21.82
2017-07-05T08:21:40.832Z,21.71
2017-07-05T08:22:50.769Z,21.8
2017-07-05T08:24:01.014Z,21.75
2017-07-05T08:25:10.955Z,21.83
2017-07-05T08:26:20.578Z,21.82
2017-07-05T08:27:30.190Z,21.9
2017-07-05T08:28:40.125Z,21.83
2017-07-05T08:29:50.065Z,21.88
2017-07-05T08:30:59.996Z,21.91
2017-07-05T08:32:09.285Z,21.9
2017-07-05T08:33:18.896Z,21.88
2017-07-05T08:34:28.830Z,21.88
2017-07-05T08:35:38.446Z,21.83
2017-07-05T08:36:47.733Z,21.84
2017-07-05T08:37:57.674Z,21.84
2017-07-05T08:39:07.609Z,21.82
2017-07-05T08:40:16.890Z,21.82
2017-07-05T08:41:26.833Z,21.82
2017-07-05T08:42:37.104Z,21.88
2017-07-05T08:43:46.714Z,21.98
2017-07-05T08:44:56.987Z,21.9
2017-07-05T08:46:06.597Z,21.91
2017-07-05T08:47:15.888Z,21.91
2017-07-05T08:48:25.828Z,21.99
2017-07-05T08:49:35.441Z,21.98
2017-07-05T08:50:44.736Z,21.92
2017-07-05T08:51:54.992Z,21.99
2017-07-05T08:53:04.274Z,21.96
2017-07-05T08:54:13.897Z,21.91
2017-07-05T08:55:22.869Z,21.9
2017-07-05T08:56:32.801Z,22.02
2017-07-05T08:57:42.733Z,21.98
2017-07-05T08:58:52.024Z,22.02
2017-07-05T09:00:01.970Z,22.02
2017-07-05T09:01:11.899Z,22.02
2017-07-05T09:02:22.167Z,22.07
2017-07-05T09:03:31.785Z,22.1
2017-07-05T09:04:41.719Z,22.12
2017-07-05T09:05:51.962Z,22.06
2017-07-05T09:07:02.215Z,22.06
2017-07-05T09:08:11.826Z,22
2017-07-05T09:09:21.769Z,22.05
2017-07-05T09:10:32.038Z,22.1
2017-07-05T09:11:41.982Z,22.05
2017-07-05T09:12:51.598Z,22.12
2017-07-05T09:14:01.858Z,22.03
2017-07-05T09:15:11.474Z,22.07
2017-07-05T09:16:21.409Z,22.12
2017-07-05T09:17:31.015Z,22.12
2017-07-05T09:18:40.622Z,22.06
2017-07-05T09:19:50.562Z,22.12
2017-07-05T09:21:00.175Z,22.07
2017-07-05T09:22:10.095Z,22.12
2017-07-05T09:23:19.697Z,22.12
2017-07-05T09:24:28.984Z,22.05
2017-07-05T09:25:38.918Z,22.07
2017-07-05T09:26:48.847Z,22.07
2017-07-05T09:27:58.457Z,22.09
2017-07-05T09:29:08.393Z,22.05
2017-07-05T09:30:18.008Z,22.06
2017-07-05T09:31:27.294Z,22.14
2017-07-05T09:32:36.586Z,22.1
2017-07-05T09:33:46.844Z,22.1
2017-07-05T09:34:56.793Z,22.18
2017-07-05T09:36:06.080Z,22.12
2017-07-05T09:37:15.371Z,22.14
2017-07-05T09:38:25.310Z,22.17
2017-07-05T09:39:34.599Z,22.17
2017-07-05T09:40:44.550Z,22.17
2017-07-05T09:41:54.154Z,22.14
2017-07-05T09:43:04.087Z,22.18
2017-07-05T09:44:13.059Z,22.15
2017-07-05T09:45:22.690Z,22.15
2017-07-05T09:46:31.979Z,22.21
2017-07-05T09:47:41.911Z,22.14
2017-07-05T09:48:51.847Z,22.1
2017-07-05T09:50:01.133Z,22.12
2017-07-05T09:51:11.075Z,22.18
2017-07-05T09:52:20.679Z,22.15
2017-07-05T09:53:30.294Z,22.15
2017-07-05T09:54:40.221Z,22.14
2017-07-05T09:55:50.467Z,22.2
2017-07-05T09:57:00.731Z,22.22
2017-07-05T09:58:10.662Z,22.15
2017-07-05T09:59:20.593Z,22.18
2017-07-05T10:00:30.526Z,22.15
2017-07-05T10:01:40.139Z,22.15
2017-07-05T10:02:50.393Z,22.2
2017-07-05T10:04:00.325Z,22.2
2017-07-05T10:05:10.250Z,22.15
2017-07-05T10:06:20.173Z,22.18
2017-07-05T10:07:29.788Z,22.2
2017-07-05T10:08:39.403Z,22.2
2017-07-05T10:09:49.016Z,22.2
2017-07-05T10:10:58.960Z,22.2
2017-07-05T10:12:08.910Z,22.22
2017-07-05T10:13:19.167Z,22.2
2017-07-05T10:14:28.133Z,22.2
2017-07-05T10:15:38.394Z,22.18
2017-07-05T10:16:48.652Z,22.15
2017-07-05T10:17:58.593Z,22.22
2017-07-05T10:19:08.207Z,22.15
2017-07-05T10:20:18.146Z,22.21
2017-07-05T10:21:27.766Z,22.22
2017-07-05T10:22:37.383Z,22.2
2017-07-05T10:23:47.310Z,22.21
2017-07-05T10:24:56.921Z,22.22
2017-07-05T10:26:06.852Z,22.18
2017-07-05T10:27:16.788Z,22.21
2017-07-05T10:28:26.401Z,22.15
2017-07-05T10:29:36.336Z,22.18
2017-07-05T10:30:45.959Z,22.18
2017-07-05T10:31:55.899Z,22.21
2017-07-05T10:33:05.834Z,22.21
2017-07-05T10:34:15.451Z,22.25
2017-07-05T10:35:25.382Z,22.24
2017-07-05T10:36:34.672Z,22.25
2017-07-05T10:37:44.932Z,22.25
2017-07-05T10:38:54.219Z,22.22
2017-07-05T10:40:03.838Z,22.28
2017-07-05T10:41:13.765Z,22.22
2017-07-05T10:42:23.700Z,22.21
2017-07-05T10:43:33.310Z,22.18
2017-07-05T10:44:42.926Z,22.21
2017-07-05T10:45:52.543Z,22.21
2017-07-05T10:47:02.491Z,22.28
2017-07-05T10:48:12.423Z,22.21
2017-07-05T10:49:21.724Z,22.3
2017-07-05T10:50:31.335Z,22.22
2017-07-05T10:51:41.583Z,22.22
2017-07-05T10:52:51.210Z,22.27
2017-07-05T10:54:00.820Z,22.28
2017-07-05T10:55:09.788Z,22.25
2017-07-05T10:56:19.735Z,22.3
2017-07-05T10:57:29.673Z,22.33
2017-07-05T10:58:39.290Z,22.25
2017-07-05T10:59:49.540Z,22.33
2017-07-05T11:00:59.170Z,22.25
2017-07-05T11:02:08.472Z,22.27
2017-07-05T11:03:18.095Z,22.27
2017-07-05T11:04:27.705Z,22.3
2017-07-05T11:05:37.371Z,22.33
2017-07-05T11:06:47.642Z,22.25
2017-07-05T11:07:57.902Z,22.3
2017-07-05T11:09:08.156Z,22.36
2017-07-05T11:10:17.775Z,22.33
2017-07-05T11:11:27.704Z,22.28
2017-07-05T11:12:37.641Z,22.31
2017-07-05T11:13:46.934Z,22.31
2017-07-05T11:14:57.192Z,22.39
2017-07-05T11:16:07.123Z,22.35
2017-07-05T11:17:16.409Z,22.37
2017-07-05T11:18:26.343Z,22.4
2017-07-05T11:19:36.282Z,22.31
2017-07-05T11:20:46.226Z,22.35
2017-07-05T11:21:56.489Z,22.4
2017-07-05T11:23:06.417Z,22.37
2017-07-05T11:24:16.357Z,22.35
2017-07-05T11:25:26.293Z,22.3
2017-07-05T11:26:36.229Z,22.31
2017-07-05T11:27:45.849Z,22.3
2017-07-05T11:28:55.796Z,22.31
2017-07-05T11:30:06.056Z,22.33
2017-07-05T11:31:15.987Z,22.31
2017-07-05T11:32:25.929Z,22.36
2017-07-05T11:33:35.563Z,22.24
2017-07-05T11:34:45.516Z,22.39
2017-07-05T11:35:55.773Z,22.33
2017-07-05T11:37:05.711Z,22.39
2017-07-05T11:38:15.331Z,22.3
2017-07-05T11:39:24.626Z,22.31
2017-07-05T11:40:34.570Z,22.35
2017-07-05T11:41:44.510Z,22.35
2017-07-05T11:42:54.458Z,22.35
2017-07-05T11:44:04.390Z,22.35
2017-07-05T11:45:14.640Z,22.35
2017-07-05T11:46:23.930Z,22.35
2017-07-05T11:47:33.869Z,22.3
2017-07-05T11:48:43.803Z,22.3
2017-07-05T11:49:53.740Z,22.35
2017-07-05T11:51:03.346Z,22.31
2017-07-05T11:52:12.632Z,22.28
2017-07-05T11:53:22.892Z,22.33
2017-07-05T11:54:32.822Z,22.31
2017-07-05T11:55:43.075Z,22.35
2017-07-05T11:56:53.007Z,22.39
2017-07-05T11:58:02.939Z,22.33
2017-07-05T11:59:12.550Z,22.31
2017-07-05T12:00:22.836Z,22.35
2017-07-05T12:01:32.454Z,22.31
2017-07-05T12:02:42.062Z,22.31
2017-07-05T12:03:50.700Z,22.37
2017-07-05T12:04:59.993Z,22.31
2017-07-05T12:06:09.924Z,22.37
2017-07-05T12:07:20.186Z,22.42
2017-07-05T12:08:30.440Z,22.36
2017-07-05T12:09:40.382Z,22.36
2017-07-05T12:10:49.669Z,22.35
2017-07-05T12:11:59.295Z,22.33
2017-07-05T12:13:09.254Z,22.37
2017-07-05T12:14:18.887Z,22.36
2017-07-05T12:15:28.517Z,22.31
2017-07-05T12:16:38.138Z,22.36
2017-07-05T12:17:47.433Z,22.39
2017-07-05T12:18:57.676Z,22.39
2017-07-05T12:20:07.625Z,22.36
2017-07-05T12:21:17.881Z,22.36
2017-07-05T12:22:28.126Z,22.36
2017-07-05T12:23:38.052Z,22.31
2017-07-05T12:24:47.338Z,22.35
2017-07-05T12:25:56.962Z,22.35
2017-07-05T12:27:06.570Z,22.36
2017-07-05T12:28:16.507Z,22.31
2017-07-05T12:29:26.763Z,22.33
2017-07-05T12:30:36.686Z,22.36
2017-07-05T12:31:46.933Z,22.35
2017-07-05T12:32:56.544Z,22.37
2017-07-05T12:34:06.160Z,22.42
2017-07-05T12:35:16.093Z,22.35
2017-07-05T12:36:25.385Z,22.39
2017-07-05T12:37:35.645Z,22.36
2017-07-05T12:38:45.902Z,22.31
2017-07-05T12:39:55.512Z,22.37
2017-07-05T12:41:04.802Z,22.36
2017-07-05T12:42:14.413Z,22.36
2017-07-05T12:43:24.351Z,22.39
2017-07-05T12:44:34.606Z,22.4
2017-07-05T12:45:44.537Z,22.36
2017-07-05T12:46:54.466Z,22.35
2017-07-05T12:48:04.478Z,22.39
2017-07-05T12:49:14.745Z,22.35
2017-07-05T12:50:24.355Z,22.31
2017-07-05T12:51:33.375Z,22.36
2017-07-05T12:52:42.988Z,22.39
2017-07-05T12:53:52.603Z,22.43
2017-07-05T12:55:02.235Z,22.39
2017-07-05T12:56:12.172Z,22.37
2017-07-05T12:57:22.112Z,22.28
2017-07-05T12:58:32.373Z,22.36
2017-07-05T12:59:41.659Z,22.39
2017-07-05T13:00:51.622Z,22.36
2017-07-05T13:02:01.880Z,22.42
2017-07-05T13:03:12.154Z,22.33
2017-07-05T13:04:22.412Z,22.35
2017-07-05T13:05:32.717Z,22.37
2017-07-05T13:06:42.649Z,22.36
2017-07-05T13:07:52.575Z,22.31
2017-07-05T13:09:02.838Z,22.39
2017-07-05T13:10:13.106Z,22.39
2017-07-05T13:11:23.038Z,22.37
2017-07-05T13:12:32.975Z,22.31
2017-07-05T13:13:43.241Z,22.3
2017-07-05T13:14:52.527Z,22.35
2017-07-05T13:16:02.775Z,22.33
2017-07-05T13:17:13.030Z,22.3
2017-07-05T13:18:23.288Z,22.37
2017-07-05T13:19:33.223Z,22.35
2017-07-05T13:20:43.166Z,22.35
2017-07-05T13:21:53.113Z,22.35
2017-07-05T13:23:02.409Z,22.36
2017-07-05T13:24:12.338Z,22.35
2017-07-05T13:25:21.779Z,22.35
2017-07-05T13:26:31.717Z,22.37
2017-07-05T13:27:41.987Z,22.35
2017-07-05T13:28:51.929Z,22.33
2017-07-05T13:30:01.867Z,22.28
2017-07-05T13:31:11.798Z,22.33
2017-07-05T13:32:21.732Z,22.33
2017-07-05T13:33:31.657Z,22.33
2017-07-05T13:34:41.598Z,22.3
2017-07-05T13:35:51.522Z,22.36
2017-07-05T13:37:01.469Z,22.37
2017-07-05T13:38:11.735Z,22.31
2017-07-05T13:39:21.026Z,22.45
2017-07-05T13:40:30.653Z,22.33
2017-07-05T13:41:40.962Z,22.33
2017-07-05T13:42:51.209Z,22.45
2017-07-05T13:44:00.823Z,22.4
2017-07-05T13:45:10.496Z,22.45
2017-07-05T13:46:20.761Z,22.49
2017-07-05T13:47:30.378Z,22.36
2017-07-05T13:48:40.305Z,22.49
2017-07-05T13:49:50.242Z,22.4
2017-07-05T13:50:59.865Z,22.3
2017-07-05T13:52:08.831Z,22.3
2017-07-05T13:53:19.078Z,22.36
2017-07-05T13:54:29.016Z,22.45
2017-07-05T13:55:38.957Z,22.4
2017-07-05T13:56:47.933Z,22.43
2017-07-05T13:57:57.873Z,22.37
2017-07-05T13:59:07.505Z,22.45
2017-07-05T14:00:17.443Z,22.35
2017-07-05T14:01:27.382Z,22.39
2017-07-05T14:02:36.999Z,22.36
2017-07-05T14:03:46.619Z,22.36
2017-07-05T14:04:56.234Z,22.33
2017-07-05T14:06:05.859Z,22.43
2017-07-05T14:07:15.798Z,22.33
2017-07-05T14:08:25.718Z,22.39
2017-07-05T14:09:35.646Z,22.4
2017-07-05T14:10:45.576Z,22.37
2017-07-05T14:11:55.013Z,22.33
2017-07-05T14:13:04.958Z,22.33
2017-07-05T14:14:14.568Z,22.54
2017-07-05T14:15:23.857Z,22.39
2017-07-05T14:16:33.792Z,22.47
2017-07-05T14:17:43.410Z,22.39
2017-07-05T14:18:53.350Z,22.37
2017-07-05T14:20:03.276Z,22.39
2017-07-05T14:21:12.564Z,22.42
2017-07-05T14:22:22.820Z,22.55
2017-07-05T14:23:32.445Z,22.4
2017-07-05T14:24:42.718Z,22.35
2017-07-05T14:25:51.360Z,22.39
2017-07-05T14:27:01.622Z,22.46
2017-07-05T14:28:11.872Z,22.4
2017-07-05T14:29:21.820Z,22.47
2017-07-05T14:30:32.086Z,22.36
2017-07-05T14:31:42.075Z,22.51
2017-07-05T14:32:51.684Z,22.46
2017-07-05T14:34:01.947Z,22.45
2017-07-05T14:35:12.200Z,22.4
2017-07-05T14:36:22.465Z,22.51
2017-07-05T14:37:32.732Z,22.46
2017-07-05T14:38:42.979Z,22.54
2017-07-05T14:39:52.746Z,22.47
2017-07-05T14:41:02.043Z,22.52
2017-07-05T14:42:11.993Z,22.45
2017-07-05T14:43:21.611Z,22.55
2017-07-05T14:44:30.897Z,22.49
2017-07-05T14:45:40.842Z,22.52
2017-07-05T14:46:50.826Z,22.51
2017-07-05T14:48:01.096Z,22.49
2017-07-05T14:49:11.034Z,22.42
2017-07-05T14:50:20.971Z,22.51
2017-07-05T14:51:30.586Z,22.51
2017-07-05T14:52:40.858Z,22.55
2017-07-05T14:53:51.126Z,22.51
2017-07-05T14:55:01.054Z,22.57
2017-07-05T14:56:10.668Z,22.46
2017-07-05T14:57:20.599Z,22.51
2017-07-05T14:58:30.210Z,22.55
2017-07-05T14:59:39.508Z,22.47
2017-07-05T15:00:49.126Z,22.47
2017-07-05T15:01:58.753Z,22.51
2017-07-05T15:03:08.035Z,22.46